Whitesville, New York
Current Conditions -  °F | °C
As of 4:56 AM on Tuesday 27 Jan 2015 (Local Time) from KELZ Reporting Station
Light Snow Light Snow  
Wind Chill: 11°   Ceiling: 1000
Heat Index: 11°   Visibility: 8mi
Dew Point:   Wind: 3mph
Humidity: 88%   Direction: 360°N
Pressure: 29.77"   Gusts: NA
Location:  42.04°N, 77.76°W
Report Text: KELZ 270956Z AUTO 36003KT 8SM -SN OVC010 M12/M13 A2977 RMK AO2 SNB25 SLP123 P0000 T11171133
Loading
Personal Weather Stations






























Interactive Weather Map New forecast layout! Learn more

10-Day Weather Forecast

Advertisements
Track Severe Weather on mobile